ADDS METAR Data INFO
IDs: Format: Raw Decoded Include TAF

Data at: 2005 UTC 19 Oct 2017

KSMO 191951Z COR 24006KT 9SM SCT025 22/17 A2990 RMK AO2 SLP122 T02170167
KSMO 191851Z 22006KT 8SM SCT028 22/17 A2992 RMK AO2 SLP131 T02220167
KSMO 191758Z 19003KT 7SM BKN026 22/16 A2992 RMK AO2 T02220161
KSMO 191751Z 20006KT 8SM SCT026 23/16 A2992 RMK AO2 SLP131 T02280161 10233 20172 50003
KSMO 191651Z COR 00000KT 9SM SCT023 BKN031 22/16 A2993 RMK AO2 SLP134 T02170156
KSMO 191551Z 00000KT 8SM BKN020 21/16 A2993 RMK AO2 SLP132 T02060161
KSMO 191451Z 11004KT 8SM OVC017 19/16 A2991 RMK AO2 SLP128 T01940161 53008
KSMO 191351Z 00000KT 9SM OVC016 19/16 A2990 RMK AO2 SLP123 T01890161
KSMO 191340Z 00000KT 8SM OVC016 19/16 A2990 RMK AO2 T01890161
KSMO 191251Z AUTO 00000KT 10SM OVC014 18/16 A2989 RMK AO2 SLP121 T01780156
KSMO 191200Z AUTO 05003KT 10SM BKN010 OVC014 17/14 A2989 RMK AO2 T01720139
KSMO 191151Z AUTO 03003KT 10SM OVC008 17/14 A2989 RMK AO2 CIG 007V014 SLP119 T01720139 10189 20167 56006
KSMO 191119Z AUTO 36003KT 10SM BKN008 BKN018 17/14 A2989 RMK AO2 T01720139
KSMO 191112Z AUTO 35003KT 10SM BKN010 BKN018 17/14 A2989 RMK AO2 T01720139
KSMO 191051Z AUTO 00000KT 10SM CLR 17/14 A2989 RMK AO2 SLP120 T01670139
KSMO 190951Z AUTO 00000KT 10SM CLR 17/14 A2990 RMK AO2 SLP122 T01720139
KSMO 190851Z AUTO 00000KT 9SM CLR 17/15 A2991 RMK AO2 SLP126 T01720150 56002
KSMO 190751Z AUTO 00000KT 10SM CLR 18/15 A2991 RMK AO2 SLP126 T01780150 402610178
KSMO 190651Z AUTO 00000KT 10SM CLR 19/16 A2991 RMK AO2 SLP127 T01890156
KSMO 190551Z AUTO 00000KT 9SM CLR 19/16 A2991 RMK AO2 SLP128 T01890161 10222 20189 51007
KSMO 190451Z AUTO 00000KT 9SM CLR 19/17 A2991 RMK AO2 SLP127 T01940167
KSMO 190351Z AUTO 00000KT 9SM CLR 19/17 A2990 RMK AO2 SLP123 T01940172
KSMO 190251Z VRB05KT 9SM CLR 19/17 A2989 RMK AO2 SLP121 T01940172 53001
KSMO 190151Z 16003KT 10SM CLR 21/16 A2989 RMK AO2 SLP118 T02060161
KSMO 190051Z 20003KT 10SM CLR 22/17 A2988 RMK AO2 SLP117 T02170167
KSMO 182351Z 21005KT 10SM CLR 23/17 A2989 RMK AO2 SLP120 T02280167 10261 20222 56012
KSMO 182251Z AUTO 24008KT 10SM CLR 23/16 A2990 RMK AO2 SLP124 T02280161
KSMO 182151Z 24009KT 10SM CLR 24/14 A2991 RMK AO2 SLP125 T02440139
KSMO 182051Z 25009KT 10SM CLR 25/13 A2993 RMK AO2 SLP132 T02500133 58011
KSMO 181951Z 25007KT 10SM CLR 26/13 A2994 RMK AO2 SLP137 T02610128
KSMO 181851Z 24008KT 10SM CLR 25/14 A2996 RMK AO2 SLP143 T02500139
KSMO 181751Z 25006KT 10SM CLR 25/14 A2996 RMK AO2 SLP143 T02500144 10261 20189 51007
KSMO 181651Z VRB04KT 10SM CLR 25/14 A2995 RMK AO2 SLP141 T02500144
KSMO 181551Z 09003KT 9SM CLR 23/14 A2995 RMK AO2 SLP141 T02280144
KSMO 181451Z 25003KT 10SM CLR 20/14 A2994 RMK AO2 SLP136 T02000144 53010
KSMO 181351Z 36003KT 10SM CLR 19/14 A2993 RMK AO2 SLP132 T01890144
KSMO 181251Z AUTO 05004KT 10SM CLR 19/14 A2992 RMK AO2 SLP128 T01890144
KSMO 181151Z AUTO 04004KT 10SM CLR 19/14 A2991 RMK AO2 SLP125 T01890144 10222 20183 56007
KSMO 181051Z AUTO 00000KT 10SM CLR 19/13 A2992 RMK AO2 SLP130 T01940133
KSMO 180951Z AUTO 04003KT 10SM CLR 19/13 A2992 RMK AO2 SLP128 T01940133
KSMO 180851Z AUTO 00000KT 10SM CLR 20/14 A2993 RMK AO2 SLP133 T02000139 55000